Time;durP1;ratioP1;P1;durP2;ratioP2;P2;SDS_P1;SDS_P2;PMS_P1;PMS_P2;Temp;Humidity;BMP_temperature;BMP_pressure;BME280_temperature;BME280_humidity;BME280_pressure;Samples;Min_cycle;Max_cycle;Signal;HPM_P1;HPM_P2
2022/01/27 00:00:36;;;;;;;9.00;5.40;;;16.90;55.80;;;;;;5027982;28;20037;-71
2022/01/27 00:05:38;;;;;;;10.48;6.25;;;16.80;55.50;;;;;;5031719;28;20056;-73
2022/01/27 00:13:09;;;;;;;10.18;6.25;;;16.80;55.30;;;;;;5029175;28;20034;-72
2022/01/27 00:15:35;;;;;;;8.75;5.45;;;16.80;55.30;;;;;;5037152;28;20274;-73
2022/01/27 00:18:07;;;;;;;7.95;5.00;;;16.80;55.30;;;;;;5038545;28;20041;-72
2022/01/27 00:20:33;;;;;;;9.68;6.03;;;16.80;55.30;;;;;;5026597;28;20048;-72
2022/01/27 00:22:58;;;;;;;9.98;5.40;;;16.80;55.40;;;;;;5023322;28;20037;-72
2022/01/27 00:25:24;;;;;;;9.00;5.80;;;16.80;55.20;;;;;;5039939;28;20026;-73
2022/01/27 00:27:49;;;;;;;10.18;6.05;;;16.80;55.30;;;;;;5019479;28;20029;-72
2022/01/27 00:30:15;;;;;;;8.65;5.47;;;16.80;55.80;;;;;;5027809;28;20218;-73
2022/01/27 00:32:40;;;;;;;11.88;6.60;;;16.80;55.20;;;;;;5027680;28;20061;-73
2022/01/27 00:35:06;;;;;;;10.57;6.35;;;16.80;55.10;;;;;;5045798;28;20026;-72
2022/01/27 00:37:32;;;;;;;9.05;5.43;;;16.80;55.10;;;;;;5030469;28;20033;-72
2022/01/27 00:39:57;;;;;;;11.35;6.10;;;16.80;55.00;;;;;;5032320;28;20037;-73
2022/01/27 00:42:24;;;;;;;9.48;6.00;;;16.80;55.20;;;;;;5057028;23;20033;31
2022/01/27 00:44:50;;;;;;;9.88;5.43;;;16.80;55.20;;;;;;5005514;28;20052;-63
2022/01/27 00:47:15;;;;;;;10.25;6.50;;;16.80;55.00;;;;;;5014862;28;20033;-63
2022/01/27 00:49:41;;;;;;;9.25;6.10;;;16.80;55.20;;;;;;5011944;28;20030;-64
2022/01/27 00:52:10;;;;;;;9.13;5.57;;;16.80;55.10;;;;;;5014500;28;20029;-63
2022/01/27 00:54:36;;;;;;;9.02;5.55;;;16.70;55.10;;;;;;5008875;28;20441;-63
2022/01/27 00:59:55;;;;;;;9.98;6.22;;;16.70;55.20;;;;;;5004343;28;20037;-63
2022/01/27 01:05:10;;;;;;;9.35;5.57;;;16.70;55.40;;;;;;5014814;28;20032;-63
2022/01/27 01:07:38;;;;;;;10.82;5.22;;;16.70;55.30;;;;;;5010375;28;20044;-63
2022/01/27 01:15:20;;;;;;;9.25;5.30;;;16.70;55.40;;;;;;5001483;28;20029;-64
2022/01/27 01:34:10;;;;;;;11.02;6.18;;;16.80;55.60;;;;;;5017932;28;20094;-63
2022/01/27 01:36:44;;;;;;;9.40;6.15;;;16.70;55.50;;;;;;4998686;28;20026;-65
2022/01/27 01:39:09;;;;;;;9.50;6.00;;;16.80;55.60;;;;;;4998182;28;20080;-63
2022/01/27 01:41:35;;;;;;;11.73;6.07;;;16.80;55.60;;;;;;5008802;28;20034;-62
2022/01/27 01:44:00;;;;;;;10.48;7.00;;;16.80;55.60;;;;;;5009198;28;20670;-62
2022/01/27 01:46:26;;;;;;;9.93;5.57;;;16.80;55.60;;;;;;5010393;28;20037;-62
2022/01/27 01:48:51;;;;;;;11.30;6.15;;;16.70;55.60;;;;;;5004837;28;20088;-62
2022/01/27 01:51:27;;;;;;;9.93;6.13;;;16.80;55.60;;;;;;5012874;28;20385;-62
2022/01/27 01:53:53;;;;;;;11.32;6.13;;;16.80;55.60;;;;;;4996687;28;20029;-62
2022/01/27 01:56:18;;;;;;;12.90;6.43;;;16.80;55.60;;;;;;5000631;28;20379;-62
2022/01/27 01:58:44;;;;;;;11.07;6.47;;;16.80;55.50;;;;;;5008407;28;20033;-62
2022/01/27 02:01:09;;;;;;;9.93;6.25;;;16.80;55.60;;;;;;5001580;28;20030;-62
2022/01/27 02:03:35;;;;;;;11.48;6.05;;;16.80;55.50;;;;;;4998665;28;20064;-61
2022/01/27 02:06:00;;;;;;;10.65;6.30;;;16.80;55.50;;;;;;5002322;28;20033;-65
2022/01/27 02:08:43;;;;;;;10.30;6.03;;;16.80;55.50;;;;;;5009295;28;20034;-62
2022/01/27 02:19:25;;;;;;;11.15;6.60;;;16.80;55.30;;;;;;5012121;28;20469;-62
2022/01/27 02:21:53;;;;;;;9.98;6.47;;;16.80;55.20;;;;;;4996106;28;20037;-63
2022/01/27 02:24:19;;;;;;;12.45;7.07;;;16.80;55.20;;;;;;5007924;28;20037;-62
2022/01/27 02:26:47;;;;;;;12.32;6.65;;;16.80;55.20;;;;;;5002624;28;20066;-62
2022/01/27 02:29:13;;;;;;;10.63;6.90;;;16.70;55.00;;;;;;5006581;28;20080;-63
2022/01/27 02:31:39;;;;;;;12.55;7.00;;;16.80;55.10;;;;;;4999564;28;20395;-62
2022/01/27 02:34:05;;;;;;;10.23;6.63;;;16.80;55.00;;;;;;5001409;28;20129;-62
2022/01/27 02:36:31;;;;;;;9.32;6.13;;;16.80;55.00;;;;;;5007213;28;20029;-62
2022/01/27 02:38:57;;;;;;;13.57;7.07;;;16.80;55.00;;;;;;5007829;28;20099;-62
2022/01/27 02:41:23;;;;;;;10.52;6.38;;;16.80;54.90;;;;;;5010099;28;20038;-62
2022/01/27 02:43:48;;;;;;;11.45;7.05;;;16.80;54.90;;;;;;4983850;28;20557;-63
2022/01/27 02:46:26;;;;;;;11.23;6.85;;;16.80;54.70;;;;;;5011095;28;20022;-62
2022/01/27 02:48:51;;;;;;;15.45;7.50;;;16.80;54.70;;;;;;4990076;28;20336;-62
2022/01/27 02:51:17;;;;;;;12.75;7.40;;;16.80;54.70;;;;;;5014362;28;20290;-62
2022/01/27 02:53:42;;;;;;;14.00;7.85;;;16.80;54.70;;;;;;5006755;28;20147;-62
2022/01/27 02:56:08;;;;;;;12.75;6.72;;;16.80;54.50;;;;;;4997972;28;20417;-61
2022/01/27 02:58:33;;;;;;;12.15;7.30;;;16.80;54.70;;;;;;5007959;28;20088;-62
2022/01/27 03:00:59;;;;;;;10.93;7.07;;;16.80;54.50;;;;;;4998178;28;20148;-62
2022/01/27 03:03:24;;;;;;;10.30;6.63;;;16.80;54.50;;;;;;5008409;28;20057;-63
2022/01/27 03:05:50;;;;;;;11.52;6.20;;;16.80;54.40;;;;;;5009769;28;20321;-62
2022/01/27 03:08:15;;;;;;;14.38;7.10;;;16.80;54.40;;;;;;5007655;28;21943;-62
2022/01/27 03:10:48;;;;;;;11.30;7.28;;;16.80;54.60;;;;;;5001136;28;20042;-62
2022/01/27 03:13:13;;;;;;;13.63;7.80;;;16.80;54.50;;;;;;5005941;28;20050;-62
2022/01/27 03:15:39;;;;;;;11.38;6.90;;;16.80;54.40;;;;;;4996410;28;20504;-62
2022/01/27 03:18:04;;;;;;;11.90;6.93;;;16.80;54.40;;;;;;5008758;28;20036;-62
2022/01/27 03:20:33;;;;;;;11.63;6.90;;;16.80;54.50;;;;;;4998102;28;20026;-62
2022/01/27 03:23:00;;;;;;;10.57;6.57;;;16.80;54.50;;;;;;5001157;28;20274;-62
2022/01/27 03:25:25;;;;;;;10.63;5.97;;;16.80;54.40;;;;;;5004410;28;20062;-62
2022/01/27 03:27:51;;;;;;;13.57;6.78;;;16.80;54.50;;;;;;5007096;28;20470;-62
2022/01/27 03:30:17;;;;;;;12.27;6.82;;;16.80;54.50;;;;;;5011828;28;20037;-63
2022/01/27 03:32:43;;;;;;;11.82;6.50;;;16.70;54.40;;;;;;5001040;28;20026;-63
2022/01/27 03:35:09;;;;;;;11.18;6.47;;;16.70;54.40;;;;;;5005411;28;20070;-63
2022/01/27 03:37:34;;;;;;;11.95;6.90;;;16.70;54.40;;;;;;5007629;28;20421;-64
2022/01/27 03:40:00;;;;;;;11.38;7.18;;;16.70;54.40;;;;;;5009583;28;20049;-63
2022/01/27 03:42:26;;;;;;;11.90;6.53;;;16.70;54.40;;;;;;5000797;28;20049;-63
2022/01/27 03:44:51;;;;;;;11.50;7.43;;;16.80;54.40;;;;;;5017988;28;20332;-63
2022/01/27 03:47:17;;;;;;;11.13;6.57;;;16.70;54.30;;;;;;5004057;28;20018;-63
2022/01/27 03:49:42;;;;;;;10.45;6.68;;;16.70;54.30;;;;;;5012534;28;20018;-63
2022/01/27 03:52:08;;;;;;;8.93;6.18;;;16.70;54.40;;;;;;4996254;28;20049;-63
2022/01/27 03:54:33;;;;;;;10.77;6.40;;;16.70;54.40;;;;;;5016021;28;20030;-63
2022/01/27 03:56:59;;;;;;;10.43;6.22;;;16.70;54.50;;;;;;5007705;28;20036;-63
2022/01/27 03:59:26;;;;;;;10.20;5.88;;;16.70;54.50;;;;;;4999943;28;20022;-63
2022/01/27 04:01:52;;;;;;;10.10;6.38;;;16.70;54.40;;;;;;4999632;28;20034;-62
2022/01/27 04:04:18;;;;;;;8.90;5.80;;;16.70;54.50;;;;;;5001176;28;20044;-64
2022/01/27 04:06:43;;;;;;;10.90;6.82;;;16.60;54.50;;;;;;5009146;28;20029;-63
2022/01/27 04:09:10;;;;;;;10.15;5.72;;;16.70;54.60;;;;;;5017503;28;20558;-63
2022/01/27 04:11:36;;;;;;;10.07;6.60;;;16.60;54.60;;;;;;5002243;28;20262;-63
2022/01/27 04:14:01;;;;;;;9.27;5.90;;;16.60;54.60;;;;;;5011173;28;20040;-63
2022/01/27 04:16:27;;;;;;;10.10;6.00;;;16.60;54.60;;;;;;5013460;28;20160;-63
2022/01/27 04:18:52;;;;;;;10.07;5.75;;;16.70;54.60;;;;;;5007613;28;20054;-63
2022/01/27 04:21:18;;;;;;;11.00;5.85;;;16.60;54.60;;;;;;5005685;28;20125;-63
2022/01/27 04:23:43;;;;;;;8.80;5.32;;;16.70;54.60;;;;;;5013681;28;20086;-62
2022/01/27 04:26:11;;;;;;;9.60;5.70;;;16.70;54.70;;;;;;5003771;28;20403;-63
2022/01/27 04:28:37;;;;;;;10.13;6.07;;;16.70;54.60;;;;;;5010164;28;20034;-62
2022/01/27 04:31:06;;;;;;;12.35;5.90;;;16.70;54.70;;;;;;5000574;28;20065;-63
2022/01/27 04:33:34;;;;;;;9.35;5.75;;;16.70;54.70;;;;;;5007791;28;20036;-63
2022/01/27 04:36:04;;;;;;;9.43;5.55;;;16.70;54.80;;;;;;5014356;28;20033;-62
2022/01/27 04:38:40;;;;;;;7.75;5.20;;;16.70;54.70;;;;;;5010481;28;20116;-63
2022/01/27 04:41:14;;;;;;;7.00;5.28;;;16.70;54.80;;;;;;5006110;28;20042;-63
2022/01/27 04:49:08;;;;;;;9.90;5.68;;;16.70;54.90;;;;;;4997852;28;20337;-63
2022/01/27 04:51:33;;;;;;;10.57;5.20;;;16.70;54.90;;;;;;5004281;28;20053;-63
2022/01/27 04:54:24;;;;;;;6.88;5.00;;;16.70;54.90;;;;;;5013272;28;20503;-64
2022/01/27 04:56:47;;;;;;;8.52;4.75;;;16.70;54.90;;;;;;4988093;28;20033;-64
2022/01/27 04:59:26;;;;;;;7.55;4.90;;;16.70;54.90;;;;;;5007734;28;20041;-64
2022/01/27 05:02:01;;;;;;;7.47;4.78;;;16.70;54.90;;;;;;4998198;28;21288;-62
2022/01/27 05:04:32;;;;;;;9.77;4.70;;;16.70;54.90;;;;;;5006093;28;20456;-63
2022/01/27 05:06:58;;;;;;;7.93;4.75;;;16.70;54.90;;;;;;4996576;28;20037;-63
2022/01/27 05:09:24;;;;;;;6.85;4.78;;;16.70;55.10;;;;;;5008792;28;20037;-63
2022/01/27 05:11:57;;;;;;;8.32;4.57;;;16.70;55.10;;;;;;4994109;28;20026;-63
2022/01/27 05:14:24;;;;;;;6.13;4.15;;;16.70;55.00;;;;;;5006614;28;20030;-63
2022/01/27 05:16:53;;;;;;;7.82;4.72;;;16.70;55.00;;;;;;4994528;28;20122;-63
2022/01/27 05:19:19;;;;;;;8.18;4.72;;;16.70;55.00;;;;;;4998971;28;20041;-63
2022/01/27 05:21:44;;;;;;;6.18;3.72;;;16.70;55.00;;;;;;5007623;28;20029;-64
2022/01/27 05:24:10;;;;;;;8.32;4.82;;;16.70;55.00;;;;;;5013231;28;20037;-63
2022/01/27 05:26:36;;;;;;;5.97;4.38;;;16.70;55.10;;;;;;4998064;28;20168;-62
2022/01/27 05:29:02;;;;;;;8.93;4.97;;;16.70;55.00;;;;;;4992552;28;20073;-63
2022/01/27 05:31:28;;;;;;;6.43;4.25;;;16.70;55.00;;;;;;5014304;28;20033;-63
2022/01/27 05:33:53;;;;;;;7.03;3.70;;;16.70;55.00;;;;;;5005164;28;20372;-62
2022/01/27 05:36:20;;;;;;;6.15;4.00;;;16.70;54.90;;;;;;5003297;28;20030;-62
2022/01/27 05:38:45;;;;;;;7.93;4.45;;;16.70;54.90;;;;;;5007202;28;20034;-63
2022/01/27 05:41:11;;;;;;;6.63;4.13;;;16.70;55.00;;;;;;4999927;28;20037;-62
2022/01/27 05:43:36;;;;;;;5.68;4.05;;;16.70;54.90;;;;;;5006843;28;20041;-62
2022/01/27 05:46:02;;;;;;;6.07;3.70;;;16.70;54.90;;;;;;5016429;28;20032;-62
2022/01/27 05:48:27;;;;;;;6.60;3.60;;;16.70;54.90;;;;;;5010357;28;20116;-62
2022/01/27 05:50:53;;;;;;;6.85;4.25;;;16.70;54.80;;;;;;5013108;28;20037;-62
2022/01/27 05:53:18;;;;;;;7.22;3.80;;;16.80;54.80;;;;;;5004082;28;20290;-62
2022/01/27 05:55:44;;;;;;;6.50;4.10;;;16.80;54.70;;;;;;5003789;28;20462;-62
2022/01/27 05:58:09;;;;;;;5.35;3.63;;;16.80;54.70;;;;;;5014709;28;20715;-62
2022/01/27 06:00:35;;;;;;;5.85;3.67;;;16.80;54.70;;;;;;5011752;28;20063;-62
2022/01/27 06:03:00;;;;;;;8.15;4.72;;;16.70;54.70;;;;;;5002980;28;20026;-62
2022/01/27 06:05:29;;;;;;;5.35;3.67;;;16.70;54.60;;;;;;5002152;28;20111;-62
2022/01/27 06:07:54;;;;;;;6.55;3.92;;;16.70;54.60;;;;;;5009367;28;20022;-63
2022/01/27 06:10:20;;;;;;;6.20;3.58;;;16.70;54.60;;;;;;5004416;28;20026;-61
2022/01/27 06:12:53;;;;;;;6.13;3.42;;;16.70;54.60;;;;;;5003269;28;20491;-62
2022/01/27 06:15:20;;;;;;;5.75;3.55;;;16.70;54.60;;;;;;5016806;28;20033;-62
2022/01/27 06:17:45;;;;;;;6.32;4.25;;;16.80;54.70;;;;;;5006828;28;20029;-62
2022/01/27 06:20:11;;;;;;;5.32;3.72;;;16.70;54.60;;;;;;5010581;28;20049;-62
2022/01/27 06:22:36;;;;;;;8.98;3.90;;;16.70;54.60;;;;;;5010138;28;20116;-62
2022/01/27 06:25:02;;;;;;;6.95;3.42;;;16.70;54.60;;;;;;5009030;28;20030;-62
2022/01/27 06:27:28;;;;;;;5.82;3.75;;;16.70;54.60;;;;;;5001518;28;20026;-63
2022/01/27 06:29:53;;;;;;;6.28;3.35;;;16.70;54.60;;;;;;5005028;28;20433;-63
2022/01/27 06:32:19;;;;;;;8.25;4.30;;;16.70;54.70;;;;;;5004871;28;20026;-64
2022/01/27 06:34:44;;;;;;;6.90;4.30;;;16.70;54.80;;;;;;5013573;28;20040;-64
2022/01/27 06:37:10;;;;;;;7.20;4.60;;;16.70;54.80;;;;;;5017105;28;20108;-64
2022/01/27 06:39:35;;;;;;;7.35;3.70;;;16.70;54.90;;;;;;5006084;28;20025;-62
2022/01/27 06:42:01;;;;;;;8.10;4.28;;;16.70;54.80;;;;;;4997866;28;20733;-61
2022/01/27 06:44:27;;;;;;;13.13;4.60;;;16.70;54.80;;;;;;5007106;28;20120;-60
2022/01/27 06:46:52;;;;;;;9.65;4.57;;;16.70;54.80;;;;;;5000287;28;20490;-61
2022/01/27 06:49:18;;;;;;;12.93;4.95;;;16.70;54.70;;;;;;5001114;28;20034;-60
2022/01/27 06:51:44;;;;;;;8.18;4.82;;;16.70;54.70;;;;;;5011009;28;20494;-61
2022/01/27 06:54:10;;;;;;;7.80;5.15;;;16.70;54.60;;;;;;5013215;28;20030;-62
2022/01/27 06:56:35;;;;;;;8.60;4.82;;;16.70;54.60;;;;;;5002910;28;20406;-62
2022/01/27 06:59:01;;;;;;;8.77;4.82;;;16.70;54.50;;;;;;5017250;28;20056;-61
2022/01/27 07:01:26;;;;;;;9.27;4.95;;;16.70;54.30;;;;;;5011962;28;20179;-63
2022/01/27 07:03:52;;;;;;;10.07;5.57;;;16.70;54.30;;;;;;5011825;28;20038;-62
2022/01/27 07:06:18;;;;;;;12.13;5.20;;;16.70;54.30;;;;;;5010069;28;20038;-62
2022/01/27 07:08:43;;;;;;;13.25;5.65;;;16.70;54.20;;;;;;5012498;23;20072;-65
2022/01/27 07:11:09;;;;;;;9.95;5.05;;;16.70;54.10;;;;;;5007771;28;20684;-65
2022/01/27 07:13:36;;;;;;;7.50;5.45;;;16.70;53.70;;;;;;5022908;28;20029;-65
2022/01/27 07:16:02;;;;;;;8.65;4.72;;;16.70;53.60;;;;;;5011183;28;20038;-64
2022/01/27 07:18:27;;;;;;;9.50;5.88;;;16.70;53.40;;;;;;5012696;28;20543;-63
2022/01/27 07:20:53;;;;;;;10.35;5.25;;;16.70;53.30;;;;;;5017904;28;20030;-64
2022/01/27 07:23:20;;;;;;;8.13;5.00;;;16.70;53.10;;;;;;5015517;28;20504;-63
2022/01/27 07:25:45;;;;;;;13.05;6.13;;;16.70;53.10;;;;;;5017803;28;20444;-65
2022/01/27 07:28:10;;;;;;;12.02;5.43;;;16.70;52.90;;;;;;5012507;28;20041;-64
2022/01/27 07:30:36;;;;;;;12.57;5.28;;;16.70;53.00;;;;;;5014008;28;20033;-64
2022/01/27 07:33:01;;;;;;;9.43;4.97;;;16.70;52.90;;;;;;5008786;28;20033;-65
2022/01/27 07:35:27;;;;;;;11.02;4.97;;;16.70;52.90;;;;;;5017119;28;20113;-65
2022/01/27 07:37:53;;;;;;;12.23;5.47;;;16.70;52.90;;;;;;5018369;28;20053;-63
2022/01/27 07:40:18;;;;;;;12.32;5.03;;;16.60;52.90;;;;;;5018141;28;20025;-64
2022/01/27 07:42:44;;;;;;;10.35;4.97;;;16.60;52.90;;;;;;5018505;28;20032;-65
2022/01/27 07:45:09;;;;;;;9.90;5.20;;;16.70;53.00;;;;;;5017303;28;20037;-66
2022/01/27 07:47:35;;;;;;;11.15;6.18;;;16.70;53.20;;;;;;5015687;28;20384;-65
2022/01/27 07:50:00;;;;;;;12.27;5.85;;;16.70;53.60;;;;;;5000048;28;20025;-68
2022/01/27 07:52:26;;;;;;;13.30;6.00;;;16.70;53.60;;;;;;5012101;28;20633;-69
2022/01/27 07:54:51;;;;;;;18.48;8.10;;;16.70;53.40;;;;;;5002447;28;20550;-67
2022/01/27 07:57:17;;;;;;;13.38;8.02;;;16.70;54.30;;;;;;4975773;28;20034;-68
2022/01/27 07:59:43;;;;;;;16.20;8.32;;;16.70;54.80;;;;;;4994525;28;20025;-68
2022/01/27 08:02:08;;;;;;;13.35;8.48;;;16.70;55.10;;;;;;4994992;28;20026;-67
2022/01/27 08:04:34;;;;;;;18.08;9.60;;;16.70;55.40;;;;;;4979268;28;20038;-67
2022/01/27 08:07:00;;;;;;;16.00;8.93;;;16.70;55.60;;;;;;4998463;28;20025;-67
2022/01/27 08:09:26;;;;;;;17.67;10.30;;;16.70;55.60;;;;;;4990335;28;20168;-68
2022/01/27 08:11:51;;;;;;;18.00;9.40;;;16.70;55.70;;;;;;5015062;28;20109;-67
2022/01/27 08:14:17;;;;;;;18.73;9.80;;;16.70;55.90;;;;;;5012018;28;20029;-68
2022/01/27 08:16:42;;;;;;;14.40;8.68;;;16.70;56.00;;;;;;4981775;28;20025;-68
2022/01/27 08:19:08;;;;;;;19.30;9.07;;;16.70;56.20;;;;;;5013347;28;20057;-68
2022/01/27 08:21:33;;;;;;;15.70;8.35;;;16.70;56.20;;;;;;4983464;28;20392;-68
2022/01/27 08:23:59;;;;;;;15.13;7.55;;;16.70;56.30;;;;;;5006031;28;20650;-69
2022/01/27 08:26:39;;;;;;;15.75;7.82;;;16.80;56.40;;;;;;4976003;28;20029;-67
2022/01/27 08:29:12;;;;;;;13.07;7.93;;;16.70;56.50;;;;;;5003331;28;20038;-66
2022/01/27 08:31:56;;;;;;;15.85;7.47;;;16.70;56.60;;;;;;5008647;28;20038;-65
2022/01/27 08:34:30;;;;;;;12.63;7.30;;;16.80;56.70;;;;;;5011146;28;20038;-66
2022/01/27 08:36:56;;;;;;;10.15;7.60;;;16.70;56.80;;;;;;5013588;28;20045;-64
2022/01/27 08:39:22;;;;;;;15.23;7.03;;;16.80;56.90;;;;;;5014214;28;20075;-66
2022/01/27 08:41:47;;;;;;;13.18;7.15;;;16.80;56.90;;;;;;5012034;28;20073;-66
2022/01/27 08:44:13;;;;;;;13.25;6.68;;;16.80;57.10;;;;;;5017492;28;20034;-65
2022/01/27 08:46:38;;;;;;;12.68;6.70;;;16.80;56.90;;;;;;5014008;28;20026;-66
2022/01/27 08:49:04;;;;;;;11.05;6.20;;;16.80;56.80;;;;;;5017294;28;20524;-66
2022/01/27 08:51:30;;;;;;;9.27;6.35;;;16.80;56.90;;;;;;5009477;28;20033;-66
2022/01/27 08:53:56;;;;;;;12.55;6.18;;;16.80;56.70;;;;;;5014133;28;20762;-66
2022/01/27 08:56:21;;;;;;;8.02;6.32;;;16.80;56.60;;;;;;5017305;28;20037;-66
2022/01/27 08:58:47;;;;;;;12.05;6.18;;;16.80;56.50;;;;;;5016831;28;20631;-65
2022/01/27 09:01:12;;;;;;;8.80;6.25;;;16.80;56.40;;;;;;5015760;28;20091;-65
2022/01/27 09:03:38;;;;;;;11.35;6.05;;;16.80;56.30;;;;;;5008192;28;20030;-65
2022/01/27 09:06:03;;;;;;;9.15;5.35;;;16.90;56.20;;;;;;5007054;28;20053;-65
2022/01/27 09:08:29;;;;;;;10.57;5.72;;;16.80;56.10;;;;;;5015877;28;20462;-65
2022/01/27 09:10:54;;;;;;;9.23;5.68;;;16.80;56.00;;;;;;5017847;28;20532;-64
2022/01/27 09:13:20;;;;;;;11.27;5.38;;;16.80;56.00;;;;;;5016529;28;20045;-66
2022/01/27 09:15:49;;;;;;;9.65;5.50;;;16.90;55.90;;;;;;5011045;28;20069;-66
2022/01/27 09:18:14;;;;;;;11.07;5.65;;;16.80;55.80;;;;;;5010906;28;20065;-66
2022/01/27 09:20:40;;;;;;;9.00;5.97;;;16.80;55.80;;;;;;5015040;28;20099;-66
2022/01/27 09:23:12;;;;;;;10.77;6.75;;;16.80;55.70;;;;;;5017503;28;20088;-64
2022/01/27 09:25:47;;;;;;;11.93;6.78;;;16.80;55.60;;;;;;5014974;28;20033;-66
2022/01/27 09:28:13;;;;;;;12.48;6.80;;;16.80;55.60;;;;;;5012881;28;20074;-67
2022/01/27 09:30:39;;;;;;;9.57;6.13;;;16.80;56.20;;;;;;4994836;28;20037;-68
2022/01/27 09:33:05;;;;;;;10.15;6.40;;;16.80;55.50;;;;;;5011305;28;20033;-68
2022/01/27 09:35:31;;;;;;;11.85;6.55;;;16.80;55.40;;;;;;4981674;28;20037;-66
2022/01/27 09:37:57;;;;;;;10.63;6.28;;;16.80;55.50;;;;;;5009839;28;20030;-67
2022/01/27 09:40:23;;;;;;;9.13;5.57;;;16.80;55.70;;;;;;5007621;28;20033;-67
2022/01/27 09:42:53;;;;;;;11.65;5.55;;;16.90;55.80;;;;;;5010791;28;20041;-67
2022/01/27 09:45:19;;;;;;;9.70;5.63;;;16.80;56.00;;;;;;5012094;28;20207;-67
2022/01/27 09:47:53;;;;;;;10.75;6.28;;;16.90;56.20;;;;;;5004998;28;20112;-67
2022/01/27 09:50:26;;;;;;;10.07;4.95;;;16.90;56.20;;;;;;5007973;28;20032;-66
2022/01/27 09:52:51;;;;;;;7.25;5.53;;;16.80;56.20;;;;;;5007527;28;20025;-66
2022/01/27 09:55:17;;;;;;;7.82;5.05;;;16.90;56.20;;;;;;5015916;28;20030;-66
2022/01/27 09:57:42;;;;;;;7.22;5.13;;;16.90;56.10;;;;;;5008064;28;20034;-67
2022/01/27 10:00:08;;;;;;;9.90;5.15;;;16.90;56.00;;;;;;5020942;28;20061;-67
2022/01/27 10:02:34;;;;;;;10.60;5.88;;;16.90;55.90;;;;;;5008101;28;20053;-68
2022/01/27 10:05:00;;;;;;;8.55;5.10;;;16.90;55.90;;;;;;5003871;28;20034;-67
2022/01/27 10:07:35;;;;;;;9.93;5.38;;;16.90;55.80;;;;;;5006314;28;20742;-67
2022/01/27 10:10:05;;;;;;;8.18;4.95;;;16.90;55.80;;;;;;5007918;28;20472;-68
2022/01/27 10:12:40;;;;;;;8.40;4.72;;;16.90;55.70;;;;;;5008073;28;20034;-66
2022/01/27 10:15:11;;;;;;;7.27;5.57;;;16.80;55.60;;;;;;5013276;28;20120;-67
2022/01/27 10:17:39;;;;;;;8.18;5.07;;;16.90;55.50;;;;;;5015834;28;20037;-67
2022/01/27 10:20:15;;;;;;;11.95;5.15;;;16.90;55.50;;;;;;5012872;28;20115;-66
2022/01/27 10:22:41;;;;;;;6.07;4.72;;;16.90;55.40;;;;;;5015560;28;20034;-68
2022/01/27 10:25:09;;;;;;;6.93;4.82;;;16.90;55.40;;;;;;5013903;28;20037;-66
2022/01/27 10:32:51;;;;;;;8.20;5.05;;;16.80;55.10;;;;;;5010481;28;20033;-67
2022/01/27 10:35:20;;;;;;;7.82;4.63;;;16.80;55.30;;;;;;5021340;28;20467;-66
2022/01/27 10:37:59;;;;;;;6.30;4.70;;;16.80;55.10;;;;;;5007767;28;20054;-67
2022/01/27 10:40:35;;;;;;;8.77;5.25;;;16.80;55.10;;;;;;5005726;28;20033;-68
2022/01/27 10:43:12;;;;;;;18.90;12.90;;;16.80;55.10;;;;;;4998296;28;20124;-66
2022/01/27 10:45:57;;;;;;;52.72;33.00;;;16.80;55.10;;;;;;5008014;28;20461;-67
2022/01/27 10:48:26;;;;;;;53.33;36.33;;;16.90;55.20;;;;;;5017963;28;20113;-69
2022/01/27 10:51:02;;;;;;;58.10;36.17;;;16.90;55.30;;;;;;5006347;28;20657;-67
2022/01/27 10:53:49;;;;;;;;;;;16.90;55.40;;;;;;4990125;28;20034;-70
2022/01/27 10:56:16;;;;;;;;;;;16.90;55.30;;;;;;5017183;28;20437;-68
2022/01/27 10:58:42;;;;;;;43.63;29.30;;;16.80;55.30;;;;;;5010497;28;19947;-68
2022/01/27 11:01:07;;;;;;;43.85;29.25;;;16.80;55.40;;;;;;4998500;28;20038;-68
2022/01/27 11:03:35;;;;;;;43.83;26.88;;;16.80;55.40;;;;;;4986494;28;20041;-68
2022/01/27 11:06:08;;;;;;;37.08;24.83;;;16.80;55.40;;;;;;4997847;28;20072;-68
2022/01/27 11:08:33;;;;;;;35.15;22.48;;;16.80;55.30;;;;;;5018821;28;20025;-66
2022/01/27 11:10:59;;;;;;;31.77;20.17;;;16.80;55.30;;;;;;5010556;28;20103;-67
2022/01/27 11:13:26;;;;;;;26.50;17.70;;;16.80;55.40;;;;;;5018894;28;20022;-70
2022/01/27 11:15:54;;;;;;;23.38;15.85;;;16.80;55.40;;;;;;4975294;28;20068;-67
2022/01/27 11:18:22;;;;;;;21.15;14.55;;;16.80;55.40;;;;;;4988469;28;20114;-69
2022/01/27 11:23:48;;;;;;;23.30;15.15;;;16.80;55.50;;;;;;5000191;28;20038;-68
2022/01/27 11:26:16;;;;;;;21.17;12.68;;;16.80;55.40;;;;;;5020968;28;20061;-69
2022/01/27 11:28:44;;;;;;;20.60;12.05;;;16.80;55.50;;;;;;5012646;28;20030;-68
2022/01/27 11:31:33;;;;;;;17.10;11.40;;;16.80;55.50;;;;;;4989967;28;20029;-69
2022/01/27 11:34:03;;;;;;;17.92;11.07;;;16.80;55.50;;;;;;4972762;28;20806;-69
2022/01/27 11:36:29;;;;;;;17.60;10.38;;;16.80;55.50;;;;;;4990200;28;20051;-68
2022/01/27 11:38:55;;;;;;;17.55;10.60;;;16.80;55.50;;;;;;4997657;28;20503;-69
2022/01/27 11:41:42;;;;;;;17.30;10.18;;;16.80;55.60;;;;;;4982318;28;20084;-69
2022/01/27 11:44:34;;;;;;;14.35;8.98;;;16.80;55.70;;;;;;5015028;28;20099;-69
2022/01/27 11:47:13;;;;;;;13.98;9.00;;;16.80;55.70;;;;;;5001852;28;20041;-68
2022/01/27 11:49:59;;;;;;;18.17;8.50;;;16.80;55.70;;;;;;5021381;28;20030;-67
2022/01/27 11:52:27;;;;;;;13.77;8.35;;;16.80;55.70;;;;;;5017632;28;20037;-68
2022/01/27 11:54:55;;;;;;;13.85;7.65;;;16.80;55.80;;;;;;4996977;28;20082;-68
2022/01/27 11:57:37;;;;;;;13.38;8.75;;;16.80;55.70;;;;;;4993803;28;20042;-69
2022/01/27 12:00:14;;;;;;;11.77;7.20;;;16.80;55.70;;;;;;5014686;28;20041;-68
2022/01/27 12:03:01;;;;;;;10.65;7.10;;;16.80;55.80;;;;;;4992781;28;20033;-69
2022/01/27 12:05:31;;;;;;;11.07;7.22;;;16.80;55.80;;;;;;5013909;28;20042;-69
2022/01/27 12:08:08;;;;;;;12.23;7.30;;;16.80;55.80;;;;;;4992092;28;20101;-69
2022/01/27 12:10:57;;;;;;;15.15;8.10;;;16.70;55.70;;;;;;5009340;28;20117;-68
2022/01/27 12:13:26;;;;;;;7.90;5.63;;;16.80;55.80;;;;;;4977104;28;20481;-69
2022/01/27 12:16:40;;;;;;;9.25;6.20;;;16.80;55.80;;;;;;5013396;28;20030;-68
2022/01/27 12:19:10;;;;;;;9.77;6.18;;;16.80;55.80;;;;;;5002458;28;20034;-69
2022/01/27 12:21:40;;;;;;;9.85;5.85;;;16.80;55.70;;;;;;4980609;28;20036;-69
2022/01/27 12:24:16;;;;;;;9.25;6.40;;;16.70;55.70;;;;;;5019675;28;20090;-68
2022/01/27 12:26:47;;;;;;;9.88;5.97;;;16.70;55.60;;;;;;5014210;28;20030;-69
2022/01/27 12:29:42;;;;;;;9.27;5.68;;;16.70;55.70;;;;;;5008753;28;20037;-68
2022/01/27 12:32:09;;;;;;;11.57;5.97;;;16.70;55.60;;;;;;4996312;28;20041;-69
2022/01/27 12:34:36;;;;;;;6.68;5.30;;;16.70;55.70;;;;;;4978804;28;20489;-68
2022/01/27 12:37:03;;;;;;;10.02;5.82;;;16.70;55.70;;;;;;4979966;28;20056;-68
2022/01/27 12:39:32;;;;;;;8.32;5.45;;;16.80;55.70;;;;;;5021693;28;20033;-68
2022/01/27 12:42:02;;;;;;;10.02;6.15;;;16.70;55.70;;;;;;5000714;28;20564;-68
2022/01/27 12:44:29;;;;;;;8.38;5.55;;;16.70;55.70;;;;;;4981685;28;20484;-70
2022/01/27 12:47:02;;;;;;;8.50;5.63;;;16.70;55.70;;;;;;4978465;28;20500;-70
2022/01/27 12:49:40;;;;;;;7.40;4.60;;;16.70;55.70;;;;;;5003963;28;20033;-70
2022/01/27 12:52:07;;;;;;;8.05;5.20;;;16.70;55.70;;;;;;5003527;28;20045;-69
2022/01/27 12:54:33;;;;;;;7.03;4.45;;;16.70;55.70;;;;;;4996432;28;20510;-69
2022/01/27 12:56:59;;;;;;;6.82;4.50;;;16.70;55.80;;;;;;5008722;28;20116;-68
2022/01/27 12:59:31;;;;;;;8.25;4.57;;;16.70;55.70;;;;;;4968202;28;20034;-71
2022/01/27 13:01:58;;;;;;;7.50;4.47;;;16.70;56.30;;;;;;5005624;28;20542;-70
2022/01/27 13:04:24;;;;;;;6.97;4.18;;;16.60;56.40;;;;;;4980107;28;20045;-71
2022/01/27 13:06:54;;;;;;;6.60;4.32;;;16.70;56.70;;;;;;4970007;28;20550;-70
2022/01/27 13:09:20;;;;;;;7.38;3.90;;;16.70;56.80;;;;;;5010262;28;20044;-71
2022/01/27 13:11:47;;;;;;;9.43;4.40;;;16.70;56.80;;;;;;4972847;28;20038;-71
2022/01/27 13:14:12;;;;;;;5.97;3.85;;;16.70;56.80;;;;;;5016884;28;20038;-71
2022/01/27 13:16:49;;;;;;;8.10;4.15;;;16.60;56.80;;;;;;5007572;28;20530;-72
2022/01/27 13:19:30;;;;;;;8.43;4.38;;;16.60;56.80;;;;;;4986530;28;20120;-71
2022/01/27 13:22:03;;;;;;;5.18;3.90;;;16.60;56.90;;;;;;4996687;28;20037;-71
2022/01/27 13:24:31;;;;;;;5.32;3.55;;;16.70;57.00;;;;;;4995490;28;20396;-71
2022/01/27 13:27:04;;;;;;;5.82;3.97;;;16.60;56.90;;;;;;4997728;28;20496;-71
2022/01/27 13:29:30;;;;;;;4.55;3.67;;;16.60;57.00;;;;;;4973983;28;20035;-71
2022/01/27 13:31:56;;;;;;;7.07;4.20;;;16.60;57.00;;;;;;4995319;28;20108;-71
2022/01/27 13:34:22;;;;;;;6.60;3.60;;;16.60;57.00;;;;;;4993712;28;20088;-72
2022/01/27 13:36:58;;;;;;;5.00;3.60;;;16.60;57.00;;;;;;4974500;28;20436;-72
2022/01/27 13:41:52;;;;;;;5.35;3.80;;;16.60;57.00;;;;;;4989647;28;20034;-71
2022/01/27 13:44:18;;;;;;;5.40;3.67;;;16.70;56.90;;;;;;4991685;28;20036;-72